East Johnson, Vermont
Current Conditions -  °F | °C
As of 10:54 PM on Saturday 20 Dec 2014 (Local Time) from KMVL Reporting Station
Clear Clear  
Wind Chill:   Ceiling: Unl
Heat Index:   Visibility: 8mi
Dew Point:   Wind: 0mph
Humidity: 83%   Direction: NA
Pressure: 30.31"   Gusts: NA
Location:  44.6472°N, 72.6854°W
Report Text: KMVL 210354Z AUTO 00000KT 8SM CLR M13/M16 A3031 RMK AO2 SLP283 I1000 T11331156 TSNO
Loading
Personal Weather Stations






























Interactive Weather Map New forecast layout! Learn more

10-Day Weather Forecast

Advertisements
Track Severe Weather on mobile